createdAt,value
2019-04-26T00:01:32.673Z,14.40
2019-04-26T00:04:01.565Z,14.40
2019-04-26T00:06:30.371Z,14.39
2019-04-26T00:09:00.664Z,14.35
2019-04-26T00:11:40.020Z,14.32
2019-04-26T00:14:25.398Z,14.37
2019-04-26T00:16:58.391Z,14.33
2019-04-26T00:19:27.409Z,14.27
2019-04-26T00:21:56.517Z,14.25
2019-04-26T00:24:28.274Z,14.27
2019-04-26T00:26:55.857Z,14.21
2019-04-26T00:29:24.484Z,14.17
2019-04-26T00:31:53.225Z,14.16
2019-04-26T00:34:21.869Z,14.23
2019-04-26T00:36:50.443Z,14.25
2019-04-26T00:39:18.945Z,14.15
2019-04-26T00:41:47.876Z,14.09
2019-04-26T00:44:16.637Z,14.11
2019-04-26T00:46:48.060Z,14.07
2019-04-26T00:49:17.588Z,14.13
2019-04-26T00:51:47.035Z,14.18
2019-04-26T00:54:16.065Z,14.28
2019-04-26T00:56:44.840Z,14.25
2019-04-26T00:59:14.949Z,14.23
2019-04-26T01:01:45.313Z,14.17
2019-04-26T01:04:14.558Z,14.15
2019-04-26T01:06:45.812Z,14.16
2019-04-26T01:09:15.932Z,14.13
2019-04-26T01:11:44.804Z,14.08
2019-04-26T01:14:13.428Z,13.98
2019-04-26T01:16:42.146Z,14.02
2019-04-26T01:19:13.611Z,13.87
2019-04-26T01:21:45.214Z,13.92
2019-04-26T01:24:14.942Z,13.87
2019-04-26T01:26:45.019Z,13.96
2019-04-26T01:29:17.165Z,13.88
2019-04-26T01:32:01.772Z,13.88
2019-04-26T01:34:31.313Z,13.92
2019-04-26T01:37:02.134Z,13.82
2019-04-26T01:39:32.260Z,13.87
2019-04-26T01:42:05.773Z,13.83
2019-04-26T01:44:55.357Z,13.73
2019-04-26T01:47:24.697Z,13.65
2019-04-26T01:49:53.942Z,13.66
2019-04-26T01:52:23.994Z,13.62
2019-04-26T01:54:52.823Z,13.61
2019-04-26T01:57:25.292Z,13.60
2019-04-26T01:59:57.897Z,13.44
2019-04-26T02:02:28.185Z,13.38
2019-04-26T02:05:02.201Z,13.39
2019-04-26T02:07:41.010Z,13.36
2019-04-26T02:10:17.600Z,13.38
2019-04-26T02:12:48.502Z,13.35
2019-04-26T02:15:20.157Z,13.36
2019-04-26T02:17:51.045Z,13.39
2019-04-26T02:20:48.560Z,13.38
2019-04-26T02:23:18.845Z,13.46
2019-04-26T02:25:47.886Z,13.38
2019-04-26T02:28:16.733Z,13.34
2019-04-26T02:30:45.642Z,13.28
2019-04-26T02:33:15.221Z,13.26
2019-04-26T02:35:43.961Z,13.25
2019-04-26T02:38:12.600Z,13.19
2019-04-26T02:40:41.441Z,13.19
2019-04-26T02:43:11.177Z,13.13
2019-04-26T02:46:05.131Z,13.09
2019-04-26T02:48:38.311Z,13.04
2019-04-26T02:51:18.766Z,13.01
2019-04-26T02:53:52.996Z,12.95
2019-04-26T02:56:28.217Z,12.85
2019-04-26T02:59:00.435Z,12.84
2019-04-26T03:01:31.812Z,12.83
2019-04-26T03:04:00.368Z,12.84
2019-04-26T03:06:32.765Z,12.81
2019-04-26T03:09:06.623Z,12.83
2019-04-26T03:11:40.952Z,12.82
2019-04-26T03:14:13.837Z,12.79
2019-04-26T03:16:58.574Z,12.78
2019-04-26T03:19:54.662Z,12.81
2019-04-26T03:22:42.837Z,12.82
2019-04-26T03:25:28.956Z,12.75
2019-04-26T03:28:37.623Z,12.68
2019-04-26T03:31:27.921Z,12.65
2019-04-26T03:34:22.673Z,12.70
2019-04-26T03:37:20.713Z,12.69
2019-04-26T03:40:02.756Z,12.68
2019-04-26T03:42:55.719Z,12.59
2019-04-26T03:45:44.189Z,12.54
2019-04-26T03:48:40.829Z,12.51
2019-04-26T03:51:29.369Z,12.53
2019-04-26T03:54:15.935Z,12.49
2019-04-26T03:56:49.134Z,12.51
2019-04-26T03:59:27.862Z,12.50
2019-04-26T04:02:17.198Z,12.56
2019-04-26T04:04:59.203Z,12.57
2019-04-26T04:07:39.529Z,12.65
2019-04-26T04:10:18.893Z,12.63
2019-04-26T04:12:59.577Z,12.70
2019-04-26T04:15:31.417Z,12.80
2019-04-26T04:18:07.419Z,12.86
2019-04-26T04:21:09.544Z,12.91
2019-04-26T04:23:42.772Z,12.98
2019-04-26T04:26:14.479Z,13.04
2019-04-26T04:29:04.382Z,13.13
2019-04-26T04:31:43.675Z,13.25
2019-04-26T04:34:33.255Z,13.28
2019-04-26T04:37:04.855Z,13.38
2019-04-26T04:39:36.393Z,13.38
2019-04-26T04:42:43.658Z,13.36
2019-04-26T04:45:42.524Z,13.51
2019-04-26T04:48:42.377Z,13.62
2019-04-26T04:51:44.866Z,13.67
2019-04-26T04:54:37.391Z,13.74
2019-04-26T04:57:14.716Z,13.92
2019-04-26T05:00:03.805Z,14.08
2019-04-26T05:02:39.920Z,14.23
2019-04-26T05:05:24.947Z,14.36
2019-04-26T05:08:08.557Z,14.50
2019-04-26T05:10:40.151Z,14.64
2019-04-26T05:13:23.905Z,14.80
2019-04-26T05:16:15.008Z,14.89
2019-04-26T05:19:26.726Z,14.99
2019-04-26T05:22:20.879Z,15.24
2019-04-26T05:25:12.145Z,15.39
2019-04-26T05:27:46.778Z,15.57
2019-04-26T05:30:22.879Z,15.71
2019-04-26T05:33:09.594Z,15.93
2019-04-26T05:36:10.099Z,16.12
2019-04-26T05:38:41.723Z,16.27
2019-04-26T05:41:35.862Z,16.46
2019-04-26T05:44:18.238Z,16.58
2019-04-26T05:47:22.336Z,16.92
2019-04-26T05:50:27.135Z,17.24
2019-04-26T05:53:03.300Z,17.62
2019-04-26T05:56:02.519Z,18.02
2019-04-26T05:58:39.946Z,18.45
2019-04-26T06:01:57.397Z,18.76
2019-04-26T06:04:30.581Z,18.97
2019-04-26T06:07:27.845Z,19.31
2019-04-26T06:10:06.786Z,19.55
2019-04-26T06:13:03.919Z,19.67
2019-04-26T06:16:02.434Z,19.85
2019-04-26T06:18:44.654Z,20.30
2019-04-26T06:21:31.240Z,20.70
2019-04-26T06:24:17.773Z,20.62
2019-04-26T06:27:11.003Z,21.10
2019-04-26T06:29:55.203Z,21.28
2019-04-26T06:32:38.849Z,21.70
2019-04-26T06:35:13.357Z,21.90
2019-04-26T06:38:07.660Z,22.20
2019-04-26T06:40:54.552Z,22.13
2019-04-26T06:43:27.613Z,22.64
2019-04-26T06:46:28.199Z,23.03
2019-04-26T06:49:26.704Z,23.46
2019-04-26T06:52:13.092Z,23.80
2019-04-26T06:55:13.517Z,24.58
2019-04-26T06:58:13.110Z,25.61
2019-04-26T07:01:10.588Z,26.40
2019-04-26T07:03:59.643Z,27.35
2019-04-26T07:06:47.996Z,29.20
2019-04-26T07:09:18.314Z,30.65
2019-04-26T07:12:17.224Z,30.91
2019-04-26T07:15:05.825Z,31.09
2019-04-26T07:17:46.564Z,32.28
2019-04-26T07:20:38.383Z,34.59
2019-04-26T07:23:35.685Z,36.88
2019-04-26T07:26:25.646Z,37.76
2019-04-26T07:29:03.128Z,40.02
2019-04-26T07:31:43.926Z,42.22
2019-04-26T07:34:34.615Z,41.84
2019-04-26T07:37:18.212Z,43.08
2019-04-26T07:40:12.161Z,43.73
2019-04-26T07:42:57.435Z,43.44
2019-04-26T07:46:03.017Z,42.56
2019-04-26T07:48:55.043Z,45.56
2019-04-26T07:51:55.237Z,45.94
2019-04-26T07:54:45.039Z,46.02
2019-04-26T07:57:40.996Z,45.42
2019-04-26T08:00:18.975Z,45.53
2019-04-26T08:03:05.504Z,47.59
2019-04-26T08:05:53.174Z,47.72
2019-04-26T08:08:24.735Z,48.89
2019-04-26T08:11:06.194Z,47.24
2019-04-26T08:13:37.892Z,46.97
2019-04-26T08:16:19.207Z,49.26
2019-04-26T08:18:52.481Z,48.14
2019-04-26T08:21:25.657Z,49.09
2019-04-26T08:24:01.086Z,48.86
2019-04-26T08:26:32.676Z,48.01
2019-04-26T08:29:06.496Z,48.42
2019-04-26T08:31:38.681Z,47.04
2019-04-26T08:34:12.364Z,47.60
2019-04-26T08:36:45.233Z,49.38
2019-04-26T08:39:32.475Z,50.93
2019-04-26T08:41:57.535Z,51.34
2019-04-26T08:44:34.448Z,51.72
2019-04-26T08:47:16.736Z,52.77
2019-04-26T08:49:47.904Z,51.38
2019-04-26T08:52:18.929Z,51.87
2019-04-26T08:54:53.563Z,52.78
2019-04-26T08:57:25.562Z,52.10
2019-04-26T08:59:56.780Z,51.78
2019-04-26T09:02:44.589Z,51.83
2019-04-26T09:05:20.294Z,54.14
2019-04-26T09:07:53.497Z,54.31
2019-04-26T09:10:25.106Z,54.78
2019-04-26T09:12:56.493Z,54.23
2019-04-26T09:15:44.747Z,52.80
2019-04-26T09:18:13.384Z,54.21
2019-04-26T09:20:42.879Z,53.18
2019-04-26T09:23:20.091Z,53.18
2019-04-26T09:25:59.309Z,55.27
2019-04-26T09:28:28.167Z,55.42
2019-04-26T09:31:19.747Z,56.16
2019-04-26T09:33:58.552Z,56.93
2019-04-26T09:36:27.194Z,56.87
2019-04-26T09:38:55.834Z,52.66
2019-04-26T09:41:26.502Z,54.59
2019-04-26T09:44:02.291Z,54.48
2019-04-26T09:46:52.763Z,56.17
2019-04-26T09:49:30.189Z,56.96
2019-04-26T09:51:58.939Z,56.77
2019-04-26T09:54:27.573Z,58.25
2019-04-26T09:56:56.214Z,57.93
2019-04-26T09:59:24.841Z,59.04
2019-04-26T10:01:55.386Z,57.71
2019-04-26T10:04:23.906Z,59.24
2019-04-26T10:06:52.540Z,57.66
2019-04-26T10:09:22.791Z,57.44
2019-04-26T10:11:53.169Z,58.59
2019-04-26T10:14:23.440Z,58.99
2019-04-26T10:17:02.579Z,55.63
2019-04-26T10:19:38.621Z,57.77
2019-04-26T10:22:07.303Z,57.30
2019-04-26T10:24:36.131Z,56.47
2019-04-26T10:27:05.024Z,59.96
2019-04-26T10:29:33.679Z,59.97
2019-04-26T10:32:02.473Z,60.81
2019-04-26T10:34:31.238Z,61.46
2019-04-26T10:37:01.658Z,62.22
2019-04-26T10:39:32.483Z,61.09
2019-04-26T10:42:00.705Z,62.28
2019-04-26T10:44:29.349Z,61.25
2019-04-26T10:46:59.882Z,61.84
2019-04-26T10:49:38.782Z,60.68
2019-04-26T10:52:11.934Z,60.95
2019-04-26T10:54:45.943Z,59.76
2019-04-26T10:57:15.194Z,58.86
2019-04-26T10:59:45.619Z,58.74
2019-04-26T11:02:16.713Z,56.45
2019-04-26T11:04:45.359Z,56.13
2019-04-26T11:07:14.167Z,54.77
2019-04-26T11:09:42.808Z,52.66
2019-04-26T11:12:14.737Z,50.37
2019-04-26T11:14:43.585Z,48.80
2019-04-26T11:17:16.186Z,46.58
2019-04-26T11:19:44.320Z,45.48
2019-04-26T11:22:13.130Z,44.19
2019-04-26T11:24:41.836Z,43.23
2019-04-26T11:27:11.242Z,42.32
2019-04-26T11:29:39.941Z,40.41
2019-04-26T11:32:09.177Z,40.23
2019-04-26T11:34:37.871Z,39.38
2019-04-26T11:37:06.683Z,38.57
2019-04-26T11:39:36.528Z,38.11
2019-04-26T11:42:07.974Z,37.52
2019-04-26T11:44:36.097Z,36.17
2019-04-26T11:47:07.718Z,35.44
2019-04-26T11:49:37.307Z,35.34
2019-04-26T11:52:05.762Z,35.23
2019-04-26T11:54:34.487Z,35.25
2019-04-26T11:57:03.213Z,34.89
2019-04-26T11:59:31.987Z,34.61
2019-04-26T12:02:00.608Z,34.19
2019-04-26T12:04:40.149Z,33.93
2019-04-26T12:07:16.508Z,33.43
2019-04-26T12:09:46.757Z,33.30
2019-04-26T12:12:15.384Z,33.45
2019-04-26T12:14:44.008Z,33.66
2019-04-26T12:17:12.649Z,33.55
2019-04-26T12:19:41.296Z,33.44
2019-04-26T12:22:10.070Z,33.00
2019-04-26T12:24:38.681Z,32.35
2019-04-26T12:27:10.215Z,32.43
2019-04-26T12:29:37.745Z,32.22
2019-04-26T12:32:06.491Z,31.64
2019-04-26T12:34:35.190Z,31.33
2019-04-26T12:37:03.935Z,31.23
2019-04-26T12:39:36.771Z,30.97
2019-04-26T12:42:04.302Z,30.76
2019-04-26T12:44:36.377Z,30.30
2019-04-26T12:47:09.613Z,30.37
2019-04-26T12:49:38.241Z,30.38
2019-04-26T12:52:07.099Z,30.01
2019-04-26T12:54:38.964Z,30.07
2019-04-26T12:57:07.041Z,29.88
2019-04-26T12:59:44.067Z,29.67
2019-04-26T13:02:06.390Z,29.62
2019-04-26T13:04:36.142Z,29.59
2019-04-26T13:07:22.685Z,29.33
2019-04-26T13:09:43.387Z,29.04
2019-04-26T13:12:13.657Z,29.00
2019-04-26T13:14:56.076Z,28.81
2019-04-26T13:17:26.343Z,28.64
2019-04-26T13:19:55.473Z,28.31
2019-04-26T13:22:24.222Z,28.53
2019-04-26T13:24:52.894Z,28.55
2019-04-26T13:27:21.412Z,28.48
2019-04-26T13:30:01.808Z,28.61
2019-04-26T13:32:20.396Z,28.64
2019-04-26T13:34:49.064Z,28.46
2019-04-26T13:37:17.678Z,28.44
2019-04-26T13:39:46.352Z,28.33
2019-04-26T13:42:17.415Z,28.32
2019-04-26T13:44:52.772Z,28.26
2019-04-26T13:47:39.462Z,28.10
2019-04-26T13:50:15.682Z,28.16
2019-04-26T13:52:44.300Z,28.30
2019-04-26T13:55:14.565Z,28.17
2019-04-26T13:57:44.571Z,28.08
2019-04-26T14:00:15.311Z,27.91
2019-04-26T14:02:44.021Z,28.04
2019-04-26T14:05:15.278Z,27.98
2019-04-26T14:07:43.122Z,27.91
2019-04-26T14:10:11.889Z,28.03
2019-04-26T14:12:40.575Z,27.92
2019-04-26T14:15:10.234Z,27.85
2019-04-26T14:17:38.956Z,27.84
2019-04-26T14:20:08.522Z,27.82
2019-04-26T14:22:40.997Z,27.86
2019-04-26T14:25:11.316Z,27.77
2019-04-26T14:27:49.896Z,27.72
2019-04-26T14:30:18.127Z,27.71
2019-04-26T14:32:46.791Z,27.80
2019-04-26T14:35:17.086Z,27.82
2019-04-26T14:37:49.805Z,27.71
2019-04-26T14:40:17.713Z,27.84
2019-04-26T14:42:48.557Z,27.86
2019-04-26T14:45:23.642Z,27.88
2019-04-26T14:47:47.893Z,27.79
2019-04-26T14:50:16.929Z,27.59
2019-04-26T14:52:45.583Z,27.68
2019-04-26T14:55:16.519Z,27.72
2019-04-26T14:57:46.767Z,27.80
2019-04-26T15:00:16.776Z,27.71
2019-04-26T15:03:03.413Z,27.61
2019-04-26T15:05:33.677Z,27.40
2019-04-26T15:08:03.888Z,27.49
2019-04-26T15:10:44.404Z,27.57
2019-04-26T15:13:17.236Z,27.48
2019-04-26T15:15:37.402Z,27.49
2019-04-26T15:18:06.336Z,27.47
2019-04-26T15:20:35.059Z,27.39
2019-04-26T15:23:03.700Z,27.24
2019-04-26T15:25:33.617Z,27.21
2019-04-26T15:28:02.572Z,27.04
2019-04-26T15:30:34.272Z,26.90
2019-04-26T15:33:03.086Z,26.78
2019-04-26T15:35:35.625Z,26.66
2019-04-26T15:38:02.527Z,26.49
2019-04-26T15:40:44.954Z,26.39
2019-04-26T15:43:24.417Z,26.32
2019-04-26T15:45:57.412Z,26.18
2019-04-26T15:48:36.896Z,26.07
2019-04-26T15:51:05.592Z,25.99
2019-04-26T15:53:34.221Z,25.85
2019-04-26T15:56:02.964Z,25.76
2019-04-26T15:58:31.599Z,25.66
2019-04-26T16:01:00.401Z,25.52
2019-04-26T16:03:29.096Z,25.52
2019-04-26T16:05:59.144Z,25.49
2019-04-26T16:08:28.109Z,25.48
2019-04-26T16:10:56.758Z,25.47
2019-04-26T16:13:25.410Z,25.40
2019-04-26T16:15:54.085Z,25.39
2019-04-26T16:18:22.725Z,25.33
2019-04-26T16:20:53.189Z,25.28
2019-04-26T16:23:22.387Z,25.29
2019-04-26T16:25:52.565Z,25.24
2019-04-26T16:28:31.030Z,25.16
2019-04-26T16:31:06.646Z,25.05
2019-04-26T16:33:36.277Z,24.90
2019-04-26T16:36:06.312Z,24.77
2019-04-26T16:38:35.920Z,24.66
2019-04-26T16:41:05.355Z,24.62
2019-04-26T16:43:40.029Z,24.55
2019-04-26T16:46:04.951Z,24.47
2019-04-26T16:48:33.630Z,24.40
2019-04-26T16:51:08.423Z,24.34
2019-04-26T16:53:46.445Z,24.24
2019-04-26T16:56:03.708Z,24.09
2019-04-26T16:58:38.141Z,23.98
2019-04-26T17:01:04.482Z,23.88
2019-04-26T17:03:38.191Z,23.77
2019-04-26T17:06:06.617Z,23.57
2019-04-26T17:08:34.052Z,23.47
2019-04-26T17:11:02.693Z,23.38
2019-04-26T17:13:34.768Z,23.31
2019-04-26T17:16:02.288Z,23.21
2019-04-26T17:18:32.333Z,23.10
2019-04-26T17:21:02.571Z,23.07
2019-04-26T17:23:35.922Z,22.96
2019-04-26T17:26:22.631Z,22.92
2019-04-26T17:28:52.461Z,22.92
2019-04-26T17:31:22.841Z,22.79
2019-04-26T17:33:51.501Z,22.69
2019-04-26T17:36:20.189Z,22.66
2019-04-26T17:38:50.420Z,22.58
2019-04-26T17:41:19.221Z,22.46
2019-04-26T17:43:52.070Z,22.42
2019-04-26T17:46:19.437Z,22.46
2019-04-26T17:48:50.706Z,22.39
2019-04-26T17:51:22.893Z,22.31
2019-04-26T17:53:56.123Z,22.28
2019-04-26T17:56:21.517Z,22.19
2019-04-26T17:58:54.246Z,22.16
2019-04-26T18:01:41.152Z,22.12
2019-04-26T18:03:55.587Z,22.10
2019-04-26T18:06:29.496Z,22.10
2019-04-26T18:08:54.726Z,22.05
2019-04-26T18:11:24.853Z,22.00
2019-04-26T18:13:53.482Z,21.90
2019-04-26T18:16:27.350Z,21.86
2019-04-26T18:18:57.208Z,21.87
2019-04-26T18:21:44.156Z,21.89
2019-04-26T18:24:13.272Z,21.84
2019-04-26T18:26:42.051Z,21.78
2019-04-26T18:29:10.724Z,21.71
2019-04-26T18:31:39.537Z,21.70
2019-04-26T18:34:08.170Z,21.59
2019-04-26T18:36:36.745Z,21.56
2019-04-26T18:39:07.951Z,21.52
2019-04-26T18:41:36.626Z,21.50
2019-04-26T18:44:06.190Z,21.50
2019-04-26T18:46:46.888Z,21.50
2019-04-26T18:49:17.564Z,21.41
2019-04-26T18:51:48.027Z,21.51
2019-04-26T18:54:17.816Z,21.49
2019-04-26T18:56:46.669Z,21.54
2019-04-26T18:59:15.648Z,21.54
2019-04-26T19:01:44.443Z,21.56
2019-04-26T19:04:15.455Z,21.47
2019-04-26T19:06:43.557Z,21.42
2019-04-26T19:09:12.524Z,21.25
2019-04-26T19:11:42.088Z,21.28
2019-04-26T19:14:16.012Z,21.23
2019-04-26T19:17:02.032Z,21.19
2019-04-26T19:19:44.864Z,21.17
2019-04-26T19:22:16.735Z,21.08
2019-04-26T19:24:43.978Z,20.99
2019-04-26T19:27:12.708Z,20.86
2019-04-26T19:29:43.271Z,20.87
2019-04-26T19:32:11.996Z,20.82
2019-04-26T19:34:42.138Z,20.84
2019-04-26T19:37:10.941Z,20.80
2019-04-26T19:39:39.600Z,20.76
2019-04-26T19:42:08.308Z,20.67
2019-04-26T19:44:36.940Z,20.69
2019-04-26T19:47:19.614Z,20.69
2019-04-26T19:49:54.085Z,20.56
2019-04-26T19:52:33.634Z,20.54
2019-04-26T19:55:18.288Z,20.47
2019-04-26T19:58:01.942Z,20.42
2019-04-26T20:00:32.188Z,20.30
2019-04-26T20:03:01.626Z,20.19
2019-04-26T20:05:31.982Z,20.22
2019-04-26T20:08:02.957Z,20.21
2019-04-26T20:10:34.556Z,20.24
2019-04-26T20:13:02.552Z,20.26
2019-04-26T20:15:31.894Z,20.24
2019-04-26T20:18:03.679Z,20.19
2019-04-26T20:20:32.806Z,20.17
2019-04-26T20:23:05.965Z,20.19
2019-04-26T20:25:31.759Z,20.07
2019-04-26T20:28:01.486Z,20.03
2019-04-26T20:30:35.122Z,19.99
2019-04-26T20:33:04.024Z,19.86
2019-04-26T20:35:32.668Z,19.79
2019-04-26T20:38:04.656Z,19.72
2019-04-26T20:40:31.705Z,19.46
2019-04-26T20:43:03.267Z,19.58
2019-04-26T20:45:39.878Z,19.53
2019-04-26T20:48:02.350Z,19.47
2019-04-26T20:50:35.157Z,19.44
2019-04-26T20:53:02.354Z,19.42
2019-04-26T20:55:34.495Z,19.36
2019-04-26T20:58:07.065Z,19.36
2019-04-26T21:00:36.449Z,19.28
2019-04-26T21:03:05.960Z,19.21
2019-04-26T21:05:45.762Z,19.20
2019-04-26T21:08:03.765Z,19.13
2019-04-26T21:10:32.531Z,19.10
2019-04-26T21:13:01.908Z,19.06
2019-04-26T21:15:32.183Z,19.04
2019-04-26T21:18:04.063Z,18.94
2019-04-26T21:20:34.492Z,18.87
2019-04-26T21:23:02.689Z,18.87
2019-04-26T21:25:42.846Z,18.83
2019-04-26T21:28:29.405Z,18.75
2019-04-26T21:30:59.620Z,18.73
2019-04-26T21:33:35.398Z,18.61
2019-04-26T21:36:05.933Z,18.58
2019-04-26T21:38:39.394Z,18.59
2019-04-26T21:41:14.012Z,18.49
2019-04-26T21:43:43.837Z,18.45
2019-04-26T21:46:18.496Z,18.42
2019-04-26T21:48:44.572Z,18.38
2019-04-26T21:51:16.061Z,18.43
2019-04-26T21:53:45.100Z,18.43
2019-04-26T21:56:14.834Z,18.33
2019-04-26T21:58:46.015Z,18.35
2019-04-26T22:01:18.997Z,18.33
2019-04-26T22:03:55.257Z,18.32
2019-04-26T22:06:19.985Z,18.32
2019-04-26T22:08:50.313Z,18.27
2019-04-26T22:11:19.922Z,18.24
2019-04-26T22:14:00.268Z,18.24
2019-04-26T22:16:48.893Z,18.15
2019-04-26T22:19:32.117Z,18.12
2019-04-26T22:22:04.249Z,18.05
2019-04-26T22:24:37.661Z,18.01
2019-04-26T22:27:06.302Z,17.93
2019-04-26T22:29:34.945Z,17.88
2019-04-26T22:32:03.825Z,17.83
2019-04-26T22:34:32.506Z,17.80
2019-04-26T22:37:07.193Z,17.74
2019-04-26T22:39:32.620Z,17.72
2019-04-26T22:42:02.808Z,17.71
2019-04-26T22:44:34.681Z,17.66
2019-04-26T22:47:21.527Z,17.60
2019-04-26T22:49:50.237Z,17.64
2019-04-26T22:52:18.876Z,17.63
2019-04-26T22:54:47.653Z,17.62
2019-04-26T22:57:16.668Z,17.61
2019-04-26T22:59:49.944Z,17.58
2019-04-26T23:02:18.570Z,17.55
2019-04-26T23:04:47.520Z,17.56
2019-04-26T23:07:18.518Z,17.51
2019-04-26T23:09:51.938Z,17.50
2019-04-26T23:12:28.122Z,17.45
2019-04-26T23:15:03.895Z,17.42
2019-04-26T23:17:36.844Z,17.37
2019-04-26T23:20:14.353Z,17.31
2019-04-26T23:22:43.039Z,17.27
2019-04-26T23:25:13.551Z,17.23
2019-04-26T23:27:43.569Z,17.20
2019-04-26T23:30:14.045Z,17.17
2019-04-26T23:32:43.438Z,17.16
2019-04-26T23:35:13.743Z,17.12
2019-04-26T23:37:42.509Z,17.13
2019-04-26T23:40:11.254Z,17.08
2019-04-26T23:42:39.893Z,17.05
2019-04-26T23:45:10.651Z,17.07
2019-04-26T23:47:39.144Z,17.00
2019-04-26T23:50:07.990Z,16.96
2019-04-26T23:52:36.628Z,16.97
2019-04-26T23:55:08.806Z,16.92
2019-04-26T23:57:36.533Z,16.91
